createdAt,value
2017-06-01T00:01:12.446Z,90.80
2017-06-01T00:03:41.749Z,90.90
2017-06-01T00:06:10.760Z,90.90
2017-06-01T00:08:39.777Z,91.00
2017-06-01T00:11:09.215Z,90.90
2017-06-01T00:13:38.246Z,90.70
2017-06-01T00:16:07.225Z,90.50
2017-06-01T00:18:36.534Z,90.40
2017-06-01T00:21:05.506Z,90.40
2017-06-01T00:23:38.353Z,90.70
2017-06-01T00:26:07.340Z,90.30
2017-06-01T00:28:36.700Z,90.30
2017-06-01T00:31:05.683Z,90.20
2017-06-01T00:33:34.663Z,90.30
2017-06-01T00:36:03.974Z,90.30
2017-06-01T00:38:32.936Z,90.40
2017-06-01T00:41:01.928Z,90.50
2017-06-01T00:43:31.242Z,90.30
2017-06-01T00:46:00.238Z,90.30
2017-06-01T00:48:29.214Z,90.10
2017-06-01T00:50:58.524Z,89.90
2017-06-01T00:53:27.408Z,89.50
2017-06-01T00:55:56.420Z,89.40
2017-06-01T00:58:25.696Z,89.10
2017-06-01T01:00:54.682Z,88.70
2017-06-01T01:03:23.673Z,88.70
2017-06-01T01:05:52.953Z,88.60
2017-06-01T01:08:21.901Z,88.60
2017-06-01T01:10:50.882Z,88.60
2017-06-01T01:13:20.160Z,89.00
2017-06-01T01:15:49.126Z,89.20
2017-06-01T01:18:18.107Z,89.10
2017-06-01T01:20:47.429Z,88.90
2017-06-01T01:23:16.427Z,88.90
2017-06-01T01:25:45.457Z,89.10
2017-06-01T01:28:14.718Z,89.60
2017-06-01T01:30:43.717Z,89.70
2017-06-01T01:33:12.671Z,89.60
2017-06-01T01:35:41.913Z,89.70
2017-06-01T01:38:10.965Z,89.00
2017-06-01T01:40:39.925Z,89.10
2017-06-01T01:43:09.187Z,89.00
2017-06-01T01:45:38.164Z,89.00
2017-06-01T01:48:07.117Z,89.20
2017-06-01T01:50:36.341Z,89.30
2017-06-01T01:53:05.333Z,89.40
2017-06-01T01:55:34.303Z,89.60
2017-06-01T01:58:03.530Z,89.80
2017-06-01T02:00:32.503Z,90.00
2017-06-01T02:03:01.501Z,90.10
2017-06-01T02:05:30.814Z,90.20
2017-06-01T02:07:59.779Z,90.10
2017-06-01T02:10:28.757Z,90.20
2017-06-01T02:12:58.013Z,90.20
2017-06-01T02:15:26.984Z,90.20
2017-06-01T02:17:55.964Z,90.30
2017-06-01T02:20:25.272Z,90.30
2017-06-01T02:22:54.242Z,90.30
2017-06-01T02:25:23.214Z,90.30
2017-06-01T02:27:52.402Z,90.30
2017-06-01T02:30:21.378Z,90.40
2017-06-01T02:32:50.342Z,90.40
2017-06-01T02:35:19.569Z,90.50
2017-06-01T02:37:48.535Z,90.50
2017-06-01T02:40:17.505Z,90.50
2017-06-01T02:42:46.820Z,90.60
2017-06-01T02:45:15.830Z,90.50
2017-06-01T02:47:44.799Z,90.50
2017-06-01T02:50:14.095Z,90.60
2017-06-01T02:52:43.087Z,90.70
2017-06-01T02:55:12.053Z,90.80
2017-06-01T02:57:41.307Z,90.90
2017-06-01T03:00:10.300Z,90.90
2017-06-01T03:02:39.251Z,90.90
2017-06-01T03:05:08.583Z,90.90
2017-06-01T03:07:37.514Z,90.90
2017-06-01T03:10:06.531Z,91.00
2017-06-01T03:12:35.764Z,91.10
2017-06-01T03:15:04.724Z,91.00
2017-06-01T03:17:33.706Z,91.10
2017-06-01T03:20:02.915Z,91.10
2017-06-01T03:22:31.973Z,91.60
2017-06-01T03:25:00.946Z,91.30
2017-06-01T03:27:30.192Z,91.30
2017-06-01T03:29:59.170Z,91.30
2017-06-01T03:32:28.111Z,91.40
2017-06-01T03:34:57.381Z,91.40
2017-06-01T03:37:26.349Z,91.40
2017-06-01T03:39:55.332Z,91.50
2017-06-01T03:42:24.658Z,91.50
2017-06-01T03:44:53.647Z,91.60
2017-06-01T03:47:22.629Z,91.90
2017-06-01T03:49:51.862Z,92.00
2017-06-01T03:52:20.849Z,92.10
2017-06-01T03:54:49.804Z,92.20
2017-06-01T03:57:19.016Z,92.30
2017-06-01T03:59:48.022Z,92.60
2017-06-01T04:02:17.039Z,92.40
2017-06-01T04:04:46.509Z,92.50
2017-06-01T04:07:15.511Z,92.40
2017-06-01T04:09:44.470Z,92.40
2017-06-01T04:12:13.803Z,92.30
2017-06-01T04:14:42.782Z,92.20
2017-06-01T04:17:11.736Z,92.20
2017-06-01T04:19:41.054Z,92.20
2017-06-01T04:22:10.064Z,92.50
2017-06-01T04:24:39.043Z,92.10
2017-06-01T04:27:07.559Z,92.10
2017-06-01T04:29:36.530Z,92.00
2017-06-01T04:32:05.618Z,92.50
2017-06-01T04:34:34.870Z,93.50
2017-06-01T04:37:03.854Z,92.80
2017-06-01T04:39:32.858Z,91.90
2017-06-01T04:42:02.190Z,91.70
2017-06-01T04:44:31.160Z,91.60
2017-06-01T04:47:00.120Z,91.80
2017-06-01T04:49:29.349Z,91.60
2017-06-01T04:51:58.446Z,91.30
2017-06-01T04:54:27.412Z,91.10
2017-06-01T04:56:56.747Z,91.10
2017-06-01T04:59:25.705Z,90.60
2017-06-01T05:01:54.673Z,90.30
2017-06-01T05:04:23.939Z,90.10
2017-06-01T05:06:52.932Z,89.10
2017-06-01T05:09:21.982Z,88.20
2017-06-01T05:11:51.207Z,87.60
2017-06-01T05:14:20.172Z,87.50
2017-06-01T05:16:49.147Z,87.10
2017-06-01T05:19:18.374Z,86.70
2017-06-01T05:21:47.352Z,86.90
2017-06-01T05:24:16.330Z,86.70
2017-06-01T05:26:45.549Z,86.00
2017-06-01T05:29:14.729Z,85.20
2017-06-01T05:31:43.683Z,85.20
2017-06-01T05:34:12.725Z,84.70
2017-06-01T05:36:41.688Z,84.20
2017-06-01T05:39:10.924Z,84.20
2017-06-01T05:41:39.895Z,83.60
2017-06-01T05:44:08.869Z,83.30
2017-06-01T05:46:37.877Z,82.70
2017-06-01T05:49:06.844Z,82.20
2017-06-01T05:51:36.180Z,82.30
2017-06-01T05:54:05.165Z,82.40
2017-06-01T05:56:34.166Z,83.60
2017-06-01T05:59:03.151Z,83.90
2017-06-01T06:01:32.146Z,83.10
2017-06-01T06:04:01.438Z,83.10
2017-06-01T06:06:30.412Z,83.70
2017-06-01T06:08:59.381Z,83.40
2017-06-01T06:11:28.373Z,82.00
2017-06-01T06:13:57.528Z,81.00
2017-06-01T06:16:26.824Z,81.60
2017-06-01T06:18:55.805Z,81.90
2017-06-01T06:21:24.784Z,80.20
2017-06-01T06:23:54.021Z,80.30
2017-06-01T06:26:22.999Z,79.90
2017-06-01T06:28:51.999Z,79.10
2017-06-01T06:31:20.954Z,79.30
2017-06-01T06:33:49.929Z,79.40
2017-06-01T06:36:19.189Z,79.40
2017-06-01T06:38:48.196Z,79.60
2017-06-01T06:41:17.248Z,79.90
2017-06-01T06:43:46.237Z,80.20
2017-06-01T06:46:15.227Z,80.30
2017-06-01T06:48:44.644Z,79.20
2017-06-01T06:51:13.605Z,78.20
2017-06-01T06:53:42.601Z,77.80
2017-06-01T06:56:11.633Z,77.90
2017-06-01T06:58:41.279Z,77.10
2017-06-01T07:01:10.620Z,76.90
2017-06-01T07:03:39.597Z,76.90
2017-06-01T07:06:08.549Z,77.10
2017-06-01T07:08:37.552Z,76.70
2017-06-01T07:11:06.544Z,76.70
2017-06-01T07:13:35.566Z,76.10
2017-06-01T07:16:04.557Z,76.10
2017-06-01T07:18:33.759Z,75.90
2017-06-01T07:21:02.721Z,75.70
2017-06-01T07:23:31.702Z,74.90
2017-06-01T07:26:00.707Z,74.90
2017-06-01T07:28:29.715Z,74.20
2017-06-01T07:30:58.746Z,73.60
2017-06-01T07:33:27.697Z,74.10
2017-06-01T07:35:56.714Z,74.00
2017-06-01T07:38:25.710Z,73.50
2017-06-01T07:40:55.055Z,73.40
2017-06-01T07:43:24.040Z,73.30
2017-06-01T07:45:53.025Z,73.10
2017-06-01T07:48:22.036Z,72.60
2017-06-01T07:50:51.005Z,72.60
2017-06-01T07:53:20.247Z,72.50
2017-06-01T07:55:49.223Z,71.50
2017-06-01T07:58:18.205Z,71.50
2017-06-01T08:00:47.215Z,71.10
2017-06-01T08:03:16.205Z,71.70
2017-06-01T08:05:45.206Z,71.70
2017-06-01T08:08:14.174Z,71.20
2017-06-01T08:10:43.390Z,71.10
2017-06-01T08:13:12.367Z,70.50
2017-06-01T08:15:41.344Z,70.40
2017-06-01T08:18:10.331Z,70.10
2017-06-01T08:20:39.279Z,70.00
2017-06-01T08:23:08.298Z,69.90
2017-06-01T08:25:37.310Z,70.10
2017-06-01T08:28:06.565Z,70.00
2017-06-01T08:30:35.543Z,70.50
2017-06-01T08:33:04.569Z,70.80
2017-06-01T08:35:33.564Z,71.00
2017-06-01T08:38:02.596Z,70.70
2017-06-01T08:40:31.621Z,70.20
2017-06-01T08:43:00.587Z,71.10
2017-06-01T08:45:29.826Z,70.40
2017-06-01T08:47:58.789Z,69.70
2017-06-01T08:50:27.786Z,69.90
2017-06-01T08:52:56.769Z,69.80
2017-06-01T08:55:25.739Z,69.30
2017-06-01T08:57:54.735Z,69.10
2017-06-01T09:00:23.728Z,68.70
2017-06-01T09:02:52.784Z,68.90
2017-06-01T09:05:21.764Z,68.70
2017-06-01T09:07:51.016Z,68.40
2017-06-01T09:10:20.037Z,67.50
2017-06-01T09:12:49.002Z,67.30
2017-06-01T09:15:18.470Z,67.30
2017-06-01T09:17:47.438Z,66.70
2017-06-01T09:20:16.764Z,66.40
2017-06-01T09:22:45.762Z,66.10
2017-06-01T09:25:14.783Z,66.40
2017-06-01T09:27:43.782Z,65.80
2017-06-01T09:30:12.758Z,66.80
2017-06-01T09:32:41.767Z,67.70
2017-06-01T09:35:10.743Z,68.50
2017-06-01T09:37:39.289Z,68.40
2017-06-01T09:40:08.346Z,67.10
2017-06-01T09:42:37.305Z,65.40
2017-06-01T09:45:06.315Z,64.10
2017-06-01T09:47:35.301Z,63.60
2017-06-01T09:50:04.299Z,62.40
2017-06-01T09:52:33.286Z,60.80
2017-06-01T09:55:01.744Z,60.90
2017-06-01T09:57:30.757Z,59.50
2017-06-01T09:59:59.727Z,59.80
2017-06-01T10:02:28.650Z,59.00
2017-06-01T10:04:57.663Z,58.70
2017-06-01T10:07:26.933Z,58.30
2017-06-01T10:09:55.920Z,57.20
2017-06-01T10:12:24.898Z,56.00
2017-06-01T10:14:53.882Z,53.00
2017-06-01T10:17:22.864Z,51.80
2017-06-01T10:19:51.880Z,52.80
2017-06-01T10:22:20.892Z,53.30
2017-06-01T10:24:49.878Z,53.30
2017-06-01T10:27:18.857Z,52.70
2017-06-01T10:29:48.123Z,51.70
2017-06-01T10:32:17.088Z,52.30
2017-06-01T10:34:46.053Z,50.80
2017-06-01T10:37:15.049Z,51.00
2017-06-01T10:39:44.034Z,52.20
2017-06-01T10:42:13.052Z,52.30
2017-06-01T10:44:42.028Z,51.00
2017-06-01T10:47:11.262Z,50.60
2017-06-01T10:49:40.246Z,50.90
2017-06-01T10:52:09.219Z,49.40
2017-06-01T10:54:38.257Z,48.10
2017-06-01T10:57:07.229Z,47.80
2017-06-01T10:59:36.200Z,48.20
2017-06-01T11:02:05.175Z,48.70
2017-06-01T11:04:34.707Z,49.60
2017-06-01T11:07:03.673Z,49.90
2017-06-01T11:09:32.633Z,49.50
2017-06-01T11:12:01.646Z,49.70
2017-06-01T11:14:30.607Z,50.00
2017-06-01T11:16:59.598Z,50.40
2017-06-01T11:19:28.579Z,50.80
2017-06-01T11:21:57.964Z,51.20
2017-06-01T11:24:26.870Z,52.10
2017-06-01T11:26:55.857Z,53.20
2017-06-01T11:29:24.877Z,54.10
2017-06-01T11:31:53.855Z,54.90
2017-06-01T11:34:23.111Z,55.60
2017-06-01T11:36:52.085Z,56.20
2017-06-01T11:39:21.060Z,56.00
2017-06-01T11:41:50.072Z,56.80
2017-06-01T11:44:19.051Z,56.50
2017-06-01T11:46:48.039Z,56.30
2017-06-01T11:49:17.026Z,56.40
2017-06-01T11:51:46.251Z,57.00
2017-06-01T11:54:15.223Z,55.90
2017-06-01T11:56:44.192Z,56.60
2017-06-01T11:59:13.177Z,56.50
2017-06-01T12:01:42.133Z,56.70
2017-06-01T12:04:11.129Z,56.10
2017-06-01T12:06:40.099Z,54.60
2017-06-01T12:09:09.376Z,53.90
2017-06-01T12:11:38.331Z,53.90
2017-06-01T12:14:07.328Z,53.40
2017-06-01T12:16:36.380Z,53.60
2017-06-01T12:19:05.314Z,53.70
2017-06-01T12:21:34.594Z,54.10
2017-06-01T12:24:03.592Z,52.30
2017-06-01T12:26:32.557Z,49.80
2017-06-01T12:29:01.538Z,49.00
2017-06-01T12:31:30.504Z,46.90
2017-06-01T12:33:59.490Z,46.00
2017-06-01T12:36:28.466Z,46.10
2017-06-01T12:38:57.681Z,44.40
2017-06-01T12:41:26.653Z,42.90
2017-06-01T12:43:55.640Z,42.00
2017-06-01T12:46:24.626Z,41.60
2017-06-01T12:48:53.582Z,41.10
2017-06-01T12:51:22.688Z,39.70
2017-06-01T12:53:51.653Z,38.90
2017-06-01T12:56:20.887Z,40.30
2017-06-01T12:58:49.853Z,41.90
2017-06-01T13:01:18.856Z,43.80
2017-06-01T13:03:47.854Z,44.60
2017-06-01T13:06:16.840Z,44.60
2017-06-01T13:08:45.732Z,43.90
2017-06-01T13:11:14.728Z,42.00
2017-06-01T13:13:44.004Z,40.60
2017-06-01T13:16:12.944Z,39.10
2017-06-01T13:18:42.524Z,39.60
2017-06-01T13:21:11.537Z,40.70
2017-06-01T13:23:40.583Z,40.30
2017-06-01T13:26:09.582Z,39.90
2017-06-01T13:28:38.535Z,38.40
2017-06-01T13:31:07.863Z,38.10
2017-06-01T13:33:36.834Z,36.70
2017-06-01T13:36:05.807Z,35.20
2017-06-01T13:38:34.816Z,32.60
2017-06-01T13:41:03.703Z,32.90
2017-06-01T13:43:32.722Z,33.20
2017-06-01T13:46:01.692Z,33.60
2017-06-01T13:48:30.987Z,34.90
2017-06-01T13:51:00.196Z,34.70
2017-06-01T13:53:29.171Z,34.30
2017-06-01T13:55:58.204Z,35.10
2017-06-01T13:58:27.171Z,34.80
2017-06-01T14:00:56.179Z,33.60
2017-06-01T14:03:25.196Z,33.90
2017-06-01T14:05:54.401Z,34.60
2017-06-01T14:08:23.380Z,34.50
2017-06-01T14:10:52.347Z,34.60
2017-06-01T14:13:21.350Z,33.90
2017-06-01T14:15:50.337Z,34.60
2017-06-01T14:18:19.427Z,34.80
2017-06-01T14:20:48.381Z,35.20
2017-06-01T14:23:17.592Z,37.20
2017-06-01T14:25:46.570Z,38.70
2017-06-01T14:28:15.530Z,39.40
2017-06-01T14:30:44.524Z,40.70
2017-06-01T14:33:13.501Z,41.10
2017-06-01T14:35:42.707Z,41.20
2017-06-01T14:38:11.680Z,42.30
2017-06-01T14:40:40.663Z,42.20
2017-06-01T14:43:09.702Z,41.50
2017-06-01T14:45:38.726Z,40.40
2017-06-01T14:48:07.723Z,38.40
2017-06-01T14:50:36.685Z,38.20
2017-06-01T14:53:06.002Z,37.00
2017-06-01T14:55:35.009Z,37.60
2017-06-01T14:58:03.972Z,37.80
2017-06-01T15:00:32.962Z,37.80
2017-06-01T15:03:01.947Z,37.00
2017-06-01T15:05:30.940Z,36.10
2017-06-01T15:07:59.920Z,36.00
2017-06-01T15:10:29.209Z,34.30
2017-06-01T15:12:58.215Z,33.80
2017-06-01T15:15:27.195Z,33.50
2017-06-01T15:17:56.106Z,32.70
2017-06-01T15:20:25.112Z,31.90
2017-06-01T15:22:54.107Z,32.00
2017-06-01T15:25:23.083Z,32.50
2017-06-01T15:27:52.390Z,32.00
2017-06-01T15:30:21.406Z,32.50
2017-06-01T15:32:50.384Z,32.70
2017-06-01T15:35:19.399Z,32.10
2017-06-01T15:37:48.376Z,32.30
2017-06-01T15:40:17.379Z,33.20
2017-06-01T15:42:46.353Z,34.90
2017-06-01T15:45:15.738Z,35.80
2017-06-01T15:47:44.700Z,36.10
2017-06-01T15:50:13.642Z,36.70
2017-06-01T15:52:42.662Z,37.00
2017-06-01T15:55:11.637Z,37.70
2017-06-01T15:57:40.903Z,37.30
2017-06-01T16:00:09.873Z,37.80
2017-06-01T16:02:38.862Z,37.50
2017-06-01T16:05:07.888Z,37.90
2017-06-01T16:07:36.859Z,38.50
2017-06-01T16:10:06.265Z,38.60
2017-06-01T16:12:34.561Z,38.60
2017-06-01T16:15:03.542Z,39.10
2017-06-01T16:17:31.782Z,39.00
2017-06-01T16:20:00.744Z,39.90
2017-06-01T16:22:30.081Z,40.10
2017-06-01T16:24:59.054Z,39.90
2017-06-01T16:27:28.024Z,40.60
2017-06-01T16:29:57.022Z,42.10
2017-06-01T16:32:26.003Z,42.90
2017-06-01T16:34:55.369Z,43.80
2017-06-01T16:37:24.362Z,44.50
2017-06-01T16:39:53.320Z,45.50
2017-06-01T16:42:22.316Z,45.70
2017-06-01T16:44:51.288Z,46.20
2017-06-01T16:47:20.292Z,46.50
2017-06-01T16:49:49.286Z,46.80
2017-06-01T16:52:18.699Z,47.70
2017-06-01T16:54:47.681Z,48.20
2017-06-01T16:57:16.647Z,47.90
2017-06-01T16:59:45.631Z,47.80
2017-06-01T17:02:14.624Z,48.20
2017-06-01T17:04:43.618Z,48.20
2017-06-01T17:07:12.591Z,48.30
2017-06-01T17:09:41.592Z,48.50
2017-06-01T17:12:10.580Z,48.50
2017-06-01T17:14:39.684Z,48.60
2017-06-01T17:17:08.619Z,48.90
2017-06-01T17:19:37.634Z,48.60
2017-06-01T17:22:06.621Z,49.20
2017-06-01T17:24:35.618Z,48.90
2017-06-01T17:27:03.825Z,48.90
2017-06-01T17:29:32.822Z,48.40
2017-06-01T17:32:01.805Z,48.70
2017-06-01T17:34:30.836Z,49.20
2017-06-01T17:36:59.816Z,49.20
2017-06-01T17:39:28.818Z,49.40
2017-06-01T17:41:57.840Z,50.10
2017-06-01T17:44:26.823Z,51.50
2017-06-01T17:46:55.819Z,51.90
2017-06-01T17:49:24.805Z,52.50
2017-06-01T17:51:53.878Z,53.20
2017-06-01T17:54:23.682Z,53.20
2017-06-01T17:56:52.676Z,53.50
2017-06-01T17:59:21.657Z,53.20
2017-06-01T18:01:50.681Z,52.80
2017-06-01T18:04:19.684Z,53.00
2017-06-01T18:06:48.770Z,53.10
2017-06-01T18:09:17.761Z,53.40
2017-06-01T18:11:46.750Z,53.30
2017-06-01T18:14:15.804Z,54.60
2017-06-01T18:16:44.779Z,55.50
2017-06-01T18:19:13.780Z,56.30
2017-06-01T18:21:42.759Z,56.80
2017-06-01T18:24:11.039Z,56.70
2017-06-01T18:26:40.062Z,57.60
2017-06-01T18:29:09.062Z,58.10
2017-06-01T18:31:38.043Z,58.10
2017-06-01T18:34:07.031Z,57.60
2017-06-01T18:36:36.011Z,58.00
2017-06-01T18:39:05.005Z,58.60
2017-06-01T18:41:33.990Z,58.90
2017-06-01T18:44:02.990Z,58.60
2017-06-01T18:46:31.953Z,58.80
2017-06-01T18:49:01.077Z,59.60
2017-06-01T18:51:30.060Z,60.40
2017-06-01T18:53:59.054Z,60.90
2017-06-01T18:56:28.053Z,61.10
2017-06-01T18:58:57.057Z,61.00
2017-06-01T19:01:26.086Z,61.00
2017-06-01T19:06:56.010Z,61.80
2017-06-01T19:09:25.105Z,62.60
2017-06-01T19:11:54.110Z,63.30
2017-06-01T19:14:23.144Z,65.00
2017-06-01T19:16:52.131Z,65.80
2017-06-01T19:19:21.146Z,66.80
2017-06-01T19:21:50.152Z,67.60
2017-06-01T19:24:19.145Z,68.00
2017-06-01T19:26:48.153Z,68.60
2017-06-01T19:29:17.534Z,68.90
2017-06-01T19:31:46.501Z,69.40
2017-06-01T19:34:15.494Z,70.10
2017-06-01T19:36:44.650Z,70.90
2017-06-01T19:39:13.637Z,71.20
2017-06-01T19:41:42.651Z,72.00
2017-06-01T19:44:11.657Z,72.00
2017-06-01T19:46:40.673Z,72.30
2017-06-01T19:49:09.689Z,72.70
2017-06-01T19:51:38.721Z,72.80
2017-06-01T19:54:07.750Z,72.40
2017-06-01T19:56:36.006Z,72.40
2017-06-01T19:59:05.001Z,72.90
2017-06-01T20:01:34.025Z,73.20
2017-06-01T20:04:03.000Z,73.50
2017-06-01T20:06:32.038Z,74.00
2017-06-01T20:09:01.046Z,74.20
2017-06-01T20:11:30.059Z,74.70
2017-06-01T20:13:58.980Z,75.30
2017-06-01T20:16:28.042Z,76.00
2017-06-01T20:18:57.045Z,76.80
2017-06-01T20:21:26.087Z,77.50
2017-06-01T20:23:55.061Z,77.40
2017-06-01T20:26:24.039Z,76.80
2017-06-01T20:28:53.057Z,75.90
2017-06-01T20:31:22.067Z,75.20
2017-06-01T20:33:54.078Z,74.40
2017-06-01T20:36:23.070Z,73.50
2017-06-01T20:38:52.079Z,72.80
2017-06-01T20:41:21.098Z,72.10
2017-06-01T20:43:50.104Z,71.70
2017-06-01T20:46:19.230Z,71.20
2017-06-01T20:48:48.213Z,70.90
2017-06-01T20:51:17.206Z,70.80
2017-06-01T20:53:46.186Z,70.60
2017-06-01T20:56:15.170Z,70.60
2017-06-01T20:58:44.180Z,70.30
2017-06-01T21:01:13.337Z,70.30
2017-06-01T21:03:42.470Z,70.70
2017-06-01T21:06:11.508Z,70.60
2017-06-01T21:08:40.461Z,70.70
2017-06-01T21:11:09.990Z,71.40
2017-06-01T21:13:38.986Z,71.40
2017-06-01T21:16:08.039Z,71.70
2017-06-01T21:18:36.274Z,71.60
2017-06-01T21:21:05.303Z,72.50
2017-06-01T21:23:34.283Z,73.00
2017-06-01T21:26:03.220Z,73.20
2017-06-01T21:28:32.278Z,73.40
2017-06-01T21:31:01.350Z,73.40
2017-06-01T21:33:30.337Z,73.30
2017-06-01T21:35:59.323Z,73.60
2017-06-01T21:38:28.338Z,73.90
2017-06-01T21:40:57.342Z,74.60
2017-06-01T21:43:26.297Z,75.20
2017-06-01T21:45:55.252Z,75.20
2017-06-01T21:48:24.312Z,75.50
2017-06-01T21:50:53.279Z,75.80
2017-06-01T21:53:22.287Z,75.80
2017-06-01T21:55:51.251Z,76.30
2017-06-01T21:58:20.239Z,76.10
2017-06-01T22:00:49.206Z,75.70
2017-06-01T22:03:18.290Z,75.70
2017-06-01T22:05:47.255Z,75.70
2017-06-01T22:08:16.242Z,75.80
2017-06-01T22:10:45.214Z,75.70
2017-06-01T22:13:14.201Z,75.90
2017-06-01T22:15:43.207Z,76.00
2017-06-01T22:18:12.198Z,76.10
2017-06-01T22:20:41.172Z,76.40
2017-06-01T22:23:10.193Z,76.50
2017-06-01T22:25:39.176Z,76.80
2017-06-01T22:28:08.165Z,77.30
2017-06-01T22:30:37.179Z,77.80
2017-06-01T22:33:06.202Z,78.50
2017-06-01T22:35:35.228Z,79.60
2017-06-01T22:38:04.204Z,79.30
2017-06-01T22:40:52.781Z,79.90
2017-06-01T22:43:21.784Z,80.40
2017-06-01T22:45:50.740Z,80.40
2017-06-01T22:48:19.750Z,80.80
2017-06-01T22:50:48.723Z,80.90
2017-06-01T22:53:17.754Z,81.10
2017-06-01T22:55:46.732Z,81.50
2017-06-01T22:58:15.722Z,81.70
2017-06-01T23:00:44.700Z,82.30
2017-06-01T23:03:13.689Z,82.70
2017-06-01T23:05:42.662Z,82.80
2017-06-01T23:08:11.729Z,83.00
2017-06-01T23:10:40.685Z,83.10
2017-06-01T23:13:09.668Z,83.50
2017-06-01T23:15:38.624Z,83.90
2017-06-01T23:18:07.605Z,84.30
2017-06-01T23:20:36.597Z,84.60
2017-06-01T23:23:05.596Z,84.70
2017-06-01T23:25:34.557Z,85.00
2017-06-01T23:28:03.549Z,85.20
2017-06-01T23:30:32.597Z,85.40
2017-06-01T23:33:01.587Z,85.80
2017-06-01T23:35:29.779Z,85.80
2017-06-01T23:37:58.830Z,86.20
2017-06-01T23:40:27.798Z,86.50
2017-06-01T23:42:56.788Z,86.40
2017-06-01T23:45:25.767Z,86.80
2017-06-01T23:47:54.752Z,87.00
2017-06-01T23:50:23.746Z,86.90
2017-06-01T23:52:52.802Z,87.00
2017-06-01T23:55:21.039Z,87.00
2017-06-01T23:57:50.042Z,87.40
